sensor_id;sensor_type;location;lat;lon;timestamp;pressure;altitude;pressure_sealevel;temperature;humidity
79366;BME280;68833;53.160;17.920;2023-06-26T00:01:44;100838.90;;;18.56;54.76
79366;BME280;68833;53.160;17.920;2023-06-26T00:04:10;100839.91;;;18.53;54.92
79366;BME280;68833;53.160;17.920;2023-06-26T00:06:41;100840.23;;;18.49;54.90
79366;BME280;68833;53.160;17.920;2023-06-26T00:09:07;100838.50;;;18.44;55.13
79366;BME280;68833;53.160;17.920;2023-06-26T00:11:34;100838.45;;;18.41;55.39
79366;BME280;68833;53.160;17.920;2023-06-26T00:14:01;100837.84;;;18.38;55.33
79366;BME280;68833;53.160;17.920;2023-06-26T00:16:33;100836.40;;;18.34;55.31
79366;BME280;68833;53.160;17.920;2023-06-26T00:19:00;100836.86;;;18.31;55.27
79366;BME280;68833;53.160;17.920;2023-06-26T00:21:27;100837.86;;;18.28;55.55
79366;BME280;68833;53.160;17.920;2023-06-26T00:23:54;100834.04;;;18.26;55.95
79366;BME280;68833;53.160;17.920;2023-06-26T00:26:21;100835.60;;;18.22;55.92
79366;BME280;68833;53.160;17.920;2023-06-26T00:28:47;100839.23;;;18.20;56.14
79366;BME280;68833;53.160;17.920;2023-06-26T00:31:14;100836.44;;;18.19;56.23
79366;BME280;68833;53.160;17.920;2023-06-26T00:33:40;100835.80;;;18.17;56.32
79366;BME280;68833;53.160;17.920;2023-06-26T00:36:09;100832.56;;;18.13;56.51
79366;BME280;68833;53.160;17.920;2023-06-26T00:38:37;100830.83;;;18.12;56.31
79366;BME280;68833;53.160;17.920;2023-06-26T00:41:06;100833.05;;;18.10;56.72
79366;BME280;68833;53.160;17.920;2023-06-26T00:43:39;100830.39;;;18.05;57.03
79366;BME280;68833;53.160;17.920;2023-06-26T00:46:14;100829.60;;;18.02;56.60
79366;BME280;68833;53.160;17.920;2023-06-26T00:48:42;100830.23;;;18.00;57.03
79366;BME280;68833;53.160;17.920;2023-06-26T00:51:09;100826.21;;;17.98;57.07
79366;BME280;68833;53.160;17.920;2023-06-26T00:53:36;100830.83;;;17.98;57.12
79366;BME280;68833;53.160;17.920;2023-06-26T00:56:03;100830.46;;;17.98;56.98
79366;BME280;68833;53.160;17.920;2023-06-26T00:58:31;100827.99;;;17.98;56.96
79366;BME280;68833;53.160;17.920;2023-06-26T01:00:58;100832.81;;;17.97;57.17
79366;BME280;68833;53.160;17.920;2023-06-26T01:03:25;100828.04;;;17.97;57.62
79366;BME280;68833;53.160;17.920;2023-06-26T01:05:52;100827.71;;;17.96;57.64
79366;BME280;68833;53.160;17.920;2023-06-26T01:08:21;100825.18;;;17.92;57.70
79366;BME280;68833;53.160;17.920;2023-06-26T01:10:48;100824.70;;;17.90;57.69
79366;BME280;68833;53.160;17.920;2023-06-26T01:13:16;100820.17;;;17.88;57.83
79366;BME280;68833;53.160;17.920;2023-06-26T01:15:42;100820.80;;;17.85;57.96
79366;BME280;68833;53.160;17.920;2023-06-26T01:18:09;100815.27;;;17.81;58.11
79366;BME280;68833;53.160;17.920;2023-06-26T01:20:37;100811.34;;;17.76;58.05
79366;BME280;68833;53.160;17.920;2023-06-26T01:23:31;100810.79;;;17.72;57.99
79366;BME280;68833;53.160;17.920;2023-06-26T01:28:41;100805.98;;;17.58;58.24
79366;BME280;68833;53.160;17.920;2023-06-26T01:31:12;100805.05;;;17.54;58.24
79366;BME280;68833;53.160;17.920;2023-06-26T01:33:40;100801.45;;;17.50;58.51
79366;BME280;68833;53.160;17.920;2023-06-26T01:36:07;100801.06;;;17.47;58.59
79366;BME280;68833;53.160;17.920;2023-06-26T01:38:35;100797.50;;;17.47;58.39
79366;BME280;68833;53.160;17.920;2023-06-26T01:41:05;100793.63;;;17.46;58.61
79366;BME280;68833;53.160;17.920;2023-06-26T01:43:35;100792.42;;;17.45;58.81
79366;BME280;68833;53.160;17.920;2023-06-26T01:46:33;100787.50;;;17.44;58.62
79366;BME280;68833;53.160;17.920;2023-06-26T01:49:06;100787.03;;;17.42;58.68
79366;BME280;68833;53.160;17.920;2023-06-26T01:51:42;100789.20;;;17.41;58.65
79366;BME280;68833;53.160;17.920;2023-06-26T01:54:17;100783.97;;;17.38;59.14
79366;BME280;68833;53.160;17.920;2023-06-26T01:56:48;100786.38;;;17.35;59.21
79366;BME280;68833;53.160;17.920;2023-06-26T01:59:17;100783.66;;;17.31;59.03
79366;BME280;68833;53.160;17.920;2023-06-26T02:01:44;100782.75;;;17.27;59.20
79366;BME280;68833;53.160;17.920;2023-06-26T02:04:10;100786.07;;;17.24;59.30
79366;BME280;68833;53.160;17.920;2023-06-26T02:06:37;100781.42;;;17.19;59.63
79366;BME280;68833;53.160;17.920;2023-06-26T02:09:03;100780.63;;;17.17;59.23
79366;BME280;68833;53.160;17.920;2023-06-26T02:11:31;100778.01;;;17.15;59.45
79366;BME280;68833;53.160;17.920;2023-06-26T02:13:58;100779.05;;;17.16;59.62
79366;BME280;68833;53.160;17.920;2023-06-26T02:16:25;100780.98;;;17.17;59.81
79366;BME280;68833;53.160;17.920;2023-06-26T02:18:51;100778.15;;;17.17;59.93
79366;BME280;68833;53.160;17.920;2023-06-26T02:21:18;100777.83;;;17.15;59.90
79366;BME280;68833;53.160;17.920;2023-06-26T02:23:45;100777.73;;;17.13;59.99
79366;BME280;68833;53.160;17.920;2023-06-26T02:26:11;100776.95;;;17.10;59.87
79366;BME280;68833;53.160;17.920;2023-06-26T02:28:38;100773.46;;;17.08;59.85
79366;BME280;68833;53.160;17.920;2023-06-26T02:31:04;100777.80;;;17.06;60.34
79366;BME280;68833;53.160;17.920;2023-06-26T02:33:32;100781.11;;;17.02;60.07
79366;BME280;68833;53.160;17.920;2023-06-26T02:35:59;100779.85;;;16.97;60.05
79366;BME280;68833;53.160;17.920;2023-06-26T02:38:26;100780.69;;;16.94;60.04
79366;BME280;68833;53.160;17.920;2023-06-26T02:40:54;100783.61;;;16.92;60.25
79366;BME280;68833;53.160;17.920;2023-06-26T02:43:20;100782.45;;;16.89;60.30
79366;BME280;68833;53.160;17.920;2023-06-26T02:45:47;100782.77;;;16.90;60.39
79366;BME280;68833;53.160;17.920;2023-06-26T02:48:13;100777.91;;;16.93;60.50
79366;BME280;68833;53.160;17.920;2023-06-26T02:50:41;100778.39;;;16.94;60.62
79366;BME280;68833;53.160;17.920;2023-06-26T02:53:14;100779.98;;;16.94;60.42
79366;BME280;68833;53.160;17.920;2023-06-26T02:55:43;100779.83;;;16.94;60.53
79366;BME280;68833;53.160;17.920;2023-06-26T02:58:10;100784.80;;;16.93;60.79
79366;BME280;68833;53.160;17.920;2023-06-26T03:00:37;100786.27;;;16.92;60.48
79366;BME280;68833;53.160;17.920;2023-06-26T03:03:10;100786.32;;;16.91;60.75
79366;BME280;68833;53.160;17.920;2023-06-26T03:05:37;100784.23;;;16.88;60.64
79366;BME280;68833;53.160;17.920;2023-06-26T03:08:03;100782.67;;;16.87;60.92
79366;BME280;68833;53.160;17.920;2023-06-26T03:10:30;100781.48;;;16.85;60.66
79366;BME280;68833;53.160;17.920;2023-06-26T03:12:57;100781.79;;;16.82;61.04
79366;BME280;68833;53.160;17.920;2023-06-26T03:15:24;100776.34;;;16.80;61.20
79366;BME280;68833;53.160;17.920;2023-06-26T03:17:51;100776.11;;;16.82;60.91
79366;BME280;68833;53.160;17.920;2023-06-26T03:20:22;100775.36;;;16.83;61.14
79366;BME280;68833;53.160;17.920;2023-06-26T03:22:54;100771.89;;;16.81;61.26
79366;BME280;68833;53.160;17.920;2023-06-26T03:25:21;100770.19;;;16.79;60.80
79366;BME280;68833;53.160;17.920;2023-06-26T03:27:48;100768.89;;;16.75;61.03
79366;BME280;68833;53.160;17.920;2023-06-26T03:30:15;100764.39;;;16.72;61.37
79366;BME280;68833;53.160;17.920;2023-06-26T03:32:42;100761.64;;;16.68;61.51
79366;BME280;68833;53.160;17.920;2023-06-26T03:35:09;100759.75;;;16.67;61.64
79366;BME280;68833;53.160;17.920;2023-06-26T03:37:36;100762.50;;;16.64;61.42
79366;BME280;68833;53.160;17.920;2023-06-26T03:40:02;100763.48;;;16.62;61.52
79366;BME280;68833;53.160;17.920;2023-06-26T03:42:30;100763.52;;;16.60;61.57
79366;BME280;68833;53.160;17.920;2023-06-26T03:44:57;100768.81;;;16.61;61.62
79366;BME280;68833;53.160;17.920;2023-06-26T03:47:24;100766.84;;;16.62;61.83
79366;BME280;68833;53.160;17.920;2023-06-26T03:49:50;100765.77;;;16.61;61.94
79366;BME280;68833;53.160;17.920;2023-06-26T03:52:16;100769.52;;;16.61;61.96
79366;BME280;68833;53.160;17.920;2023-06-26T03:54:43;100763.45;;;16.62;62.24
79366;BME280;68833;53.160;17.920;2023-06-26T03:57:09;100765.73;;;16.63;62.33
79366;BME280;68833;53.160;17.920;2023-06-26T03:59:36;100770.30;;;16.64;62.55
79366;BME280;68833;53.160;17.920;2023-06-26T04:02:03;100767.63;;;16.64;62.80
79366;BME280;68833;53.160;17.920;2023-06-26T04:04:30;100764.61;;;16.65;62.44
79366;BME280;68833;53.160;17.920;2023-06-26T04:06:58;100764.52;;;16.67;62.94
79366;BME280;68833;53.160;17.920;2023-06-26T04:09:28;100763.75;;;16.70;62.49
79366;BME280;68833;53.160;17.920;2023-06-26T04:11:54;100764.48;;;16.74;62.86
79366;BME280;68833;53.160;17.920;2023-06-26T04:14:21;100764.00;;;16.78;62.83
79366;BME280;68833;53.160;17.920;2023-06-26T04:16:50;100761.45;;;16.80;62.93
79366;BME280;68833;53.160;17.920;2023-06-26T04:19:17;100764.69;;;16.84;63.09
79366;BME280;68833;53.160;17.920;2023-06-26T04:21:43;100762.81;;;16.86;63.24
79366;BME280;68833;53.160;17.920;2023-06-26T04:24:12;100763.84;;;16.88;63.38
79366;BME280;68833;53.160;17.920;2023-06-26T04:26:39;100761.64;;;16.91;63.37
79366;BME280;68833;53.160;17.920;2023-06-26T04:29:09;100761.85;;;16.95;63.78
79366;BME280;68833;53.160;17.920;2023-06-26T04:31:35;100766.13;;;16.99;63.81
79366;BME280;68833;53.160;17.920;2023-06-26T04:34:02;100763.33;;;17.04;64.04
79366;BME280;68833;53.160;17.920;2023-06-26T04:36:28;100763.70;;;17.08;64.11
79366;BME280;68833;53.160;17.920;2023-06-26T04:38:56;100763.20;;;17.13;63.91
79366;BME280;68833;53.160;17.920;2023-06-26T04:41:23;100761.88;;;17.16;64.65
79366;BME280;68833;53.160;17.920;2023-06-26T04:43:49;100760.33;;;17.18;64.23
79366;BME280;68833;53.160;17.920;2023-06-26T04:46:15;100759.61;;;17.24;64.42
79366;BME280;68833;53.160;17.920;2023-06-26T04:48:42;100761.39;;;17.28;64.66
79366;BME280;68833;53.160;17.920;2023-06-26T04:51:11;100761.71;;;17.34;64.36
79366;BME280;68833;53.160;17.920;2023-06-26T04:53:37;100758.84;;;17.40;64.29
79366;BME280;68833;53.160;17.920;2023-06-26T04:56:03;100760.04;;;17.47;63.98
79366;BME280;68833;53.160;17.920;2023-06-26T04:58:30;100760.70;;;17.53;64.39
79366;BME280;68833;53.160;17.920;2023-06-26T05:00:56;100763.02;;;17.58;64.18
79366;BME280;68833;53.160;17.920;2023-06-26T05:03:22;100760.02;;;17.61;64.50
79366;BME280;68833;53.160;17.920;2023-06-26T05:05:49;100762.20;;;17.65;63.68
79366;BME280;68833;53.160;17.920;2023-06-26T05:08:24;100762.91;;;17.69;64.11
79366;BME280;68833;53.160;17.920;2023-06-26T05:10:52;100761.03;;;17.77;64.00
79366;BME280;68833;53.160;17.920;2023-06-26T05:13:19;100760.38;;;17.85;63.54
79366;BME280;68833;53.160;17.920;2023-06-26T05:15:46;100758.71;;;17.92;63.64
79366;BME280;68833;53.160;17.920;2023-06-26T05:18:13;100755.43;;;17.99;63.46
79366;BME280;68833;53.160;17.920;2023-06-26T05:20:39;100750.59;;;18.05;63.60
79366;BME280;68833;53.160;17.920;2023-06-26T05:23:06;100752.49;;;18.11;63.37
79366;BME280;68833;53.160;17.920;2023-06-26T05:25:33;100749.95;;;18.17;63.26
79366;BME280;68833;53.160;17.920;2023-06-26T05:28:00;100748.67;;;18.22;63.46
79366;BME280;68833;53.160;17.920;2023-06-26T05:30:27;100749.34;;;18.27;63.10
79366;BME280;68833;53.160;17.920;2023-06-26T05:32:54;100746.66;;;18.32;63.30
79366;BME280;68833;53.160;17.920;2023-06-26T05:35:21;100746.95;;;18.39;63.26
79366;BME280;68833;53.160;17.920;2023-06-26T05:37:50;100744.23;;;18.49;62.65
79366;BME280;68833;53.160;17.920;2023-06-26T05:40:18;100739.46;;;18.61;62.82
79366;BME280;68833;53.160;17.920;2023-06-26T05:42:45;100740.21;;;18.72;62.38
79366;BME280;68833;53.160;17.920;2023-06-26T05:45:11;100737.91;;;18.85;62.23
79366;BME280;68833;53.160;17.920;2023-06-26T05:47:37;100739.68;;;18.98;62.10
79366;BME280;68833;53.160;17.920;2023-06-26T05:50:04;100738.20;;;19.12;62.16
79366;BME280;68833;53.160;17.920;2023-06-26T05:52:31;100738.89;;;19.24;61.73
79366;BME280;68833;53.160;17.920;2023-06-26T05:54:57;100736.65;;;19.34;61.45
79366;BME280;68833;53.160;17.920;2023-06-26T05:57:27;100736.34;;;19.46;61.07
79366;BME280;68833;53.160;17.920;2023-06-26T05:59:54;100730.59;;;19.55;60.78
79366;BME280;68833;53.160;17.920;2023-06-26T06:02:20;100730.71;;;19.63;60.78
79366;BME280;68833;53.160;17.920;2023-06-26T06:04:47;100736.36;;;19.76;60.71
79366;BME280;68833;53.160;17.920;2023-06-26T06:07:13;100731.10;;;19.87;60.29
79366;BME280;68833;53.160;17.920;2023-06-26T06:09:40;100730.73;;;19.98;60.26
79366;BME280;68833;53.160;17.920;2023-06-26T06:12:07;100729.20;;;20.08;59.84
79366;BME280;68833;53.160;17.920;2023-06-26T06:14:34;100730.61;;;20.16;59.82
79366;BME280;68833;53.160;17.920;2023-06-26T06:17:01;100731.45;;;20.24;59.60
79366;BME280;68833;53.160;17.920;2023-06-26T06:19:27;100732.61;;;20.33;59.21
79366;BME280;68833;53.160;17.920;2023-06-26T06:21:54;100726.90;;;20.41;58.84
79366;BME280;68833;53.160;17.920;2023-06-26T06:24:20;100725.65;;;20.52;59.22
79366;BME280;68833;53.160;17.920;2023-06-26T06:26:46;100724.51;;;20.64;59.32
79366;BME280;68833;53.160;17.920;2023-06-26T06:29:12;100722.41;;;20.77;58.94
79366;BME280;68833;53.160;17.920;2023-06-26T06:31:39;100719.29;;;20.90;58.56
79366;BME280;68833;53.160;17.920;2023-06-26T06:34:05;100719.59;;;21.01;58.64
79366;BME280;68833;53.160;17.920;2023-06-26T06:36:31;100715.25;;;21.13;58.21
79366;BME280;68833;53.160;17.920;2023-06-26T06:38:57;100715.41;;;21.23;57.71
79366;BME280;68833;53.160;17.920;2023-06-26T06:41:24;100713.87;;;21.32;57.63
79366;BME280;68833;53.160;17.920;2023-06-26T06:43:50;100715.33;;;21.41;57.55
79366;BME280;68833;53.160;17.920;2023-06-26T06:46:16;100711.58;;;21.51;57.45
79366;BME280;68833;53.160;17.920;2023-06-26T06:48:42;100711.71;;;21.59;57.24
79366;BME280;68833;53.160;17.920;2023-06-26T06:51:09;100710.92;;;21.67;57.07
79366;BME280;68833;53.160;17.920;2023-06-26T06:53:35;100709.65;;;21.74;56.91
79366;BME280;68833;53.160;17.920;2023-06-26T06:56:01;100710.33;;;21.84;56.77
79366;BME280;68833;53.160;17.920;2023-06-26T06:58:28;100710.61;;;21.95;56.23
79366;BME280;68833;53.160;17.920;2023-06-26T07:00:54;100709.16;;;22.05;56.22
79366;BME280;68833;53.160;17.920;2023-06-26T07:03:21;100708.27;;;22.15;56.09
79366;BME280;68833;53.160;17.920;2023-06-26T07:05:48;100713.64;;;22.24;55.48
79366;BME280;68833;53.160;17.920;2023-06-26T07:08:14;100711.76;;;22.32;55.56
79366;BME280;68833;53.160;17.920;2023-06-26T07:10:40;100708.04;;;22.37;55.19
79366;BME280;68833;53.160;17.920;2023-06-26T07:13:07;100711.25;;;22.44;54.98
79366;BME280;68833;53.160;17.920;2023-06-26T07:15:33;100710.71;;;22.50;54.81
79366;BME280;68833;53.160;17.920;2023-06-26T07:17:59;100707.67;;;22.57;54.78
79366;BME280;68833;53.160;17.920;2023-06-26T07:20:26;100711.42;;;22.63;54.49
79366;BME280;68833;53.160;17.920;2023-06-26T07:22:52;100706.05;;;22.69;54.37
79366;BME280;68833;53.160;17.920;2023-06-26T07:25:19;100711.27;;;22.78;54.01
79366;BME280;68833;53.160;17.920;2023-06-26T07:27:45;100708.19;;;22.84;53.93
79366;BME280;68833;53.160;17.920;2023-06-26T07:30:11;100709.61;;;22.90;53.75
79366;BME280;68833;53.160;17.920;2023-06-26T07:32:39;100707.05;;;22.97;53.65
79366;BME280;68833;53.160;17.920;2023-06-26T07:35:06;100706.36;;;23.05;53.45
79366;BME280;68833;53.160;17.920;2023-06-26T07:37:33;100708.71;;;23.14;53.31
79366;BME280;68833;53.160;17.920;2023-06-26T07:39:59;100704.30;;;23.22;53.02
79366;BME280;68833;53.160;17.920;2023-06-26T07:42:25;100701.46;;;23.30;53.05
79366;BME280;68833;53.160;17.920;2023-06-26T07:44:51;100699.45;;;23.37;52.51
79366;BME280;68833;53.160;17.920;2023-06-26T07:47:18;100699.52;;;23.44;52.14
79366;BME280;68833;53.160;17.920;2023-06-26T07:49:44;100693.94;;;23.51;51.87
79366;BME280;68833;53.160;17.920;2023-06-26T07:52:11;100696.48;;;23.58;51.20
79366;BME280;68833;53.160;17.920;2023-06-26T07:54:37;100696.65;;;23.64;50.78
79366;BME280;68833;53.160;17.920;2023-06-26T07:57:05;100691.48;;;23.63;50.30
79366;BME280;68833;53.160;17.920;2023-06-26T07:59:35;100693.23;;;23.59;50.42
79366;BME280;68833;53.160;17.920;2023-06-26T08:02:01;100691.34;;;23.52;50.44
79366;BME280;68833;53.160;17.920;2023-06-26T08:04:29;100691.21;;;23.45;49.92
79366;BME280;68833;53.160;17.920;2023-06-26T08:06:58;100686.26;;;23.38;49.97
79366;BME280;68833;53.160;17.920;2023-06-26T08:09:28;100683.80;;;23.32;50.78
79366;BME280;68833;53.160;17.920;2023-06-26T08:11:55;100684.17;;;23.26;50.88
79366;BME280;68833;53.160;17.920;2023-06-26T08:14:22;100684.16;;;23.18;51.25
79366;BME280;68833;53.160;17.920;2023-06-26T08:16:49;100679.14;;;23.11;51.36
79366;BME280;68833;53.160;17.920;2023-06-26T08:19:16;100675.39;;;23.05;51.06
79366;BME280;68833;53.160;17.920;2023-06-26T08:21:43;100670.23;;;23.07;51.17
79366;BME280;68833;53.160;17.920;2023-06-26T08:24:10;100665.16;;;23.05;51.34
79366;BME280;68833;53.160;17.920;2023-06-26T08:26:38;100661.46;;;23.04;51.34
79366;BME280;68833;53.160;17.920;2023-06-26T08:29:05;100663.00;;;23.05;51.26
79366;BME280;68833;53.160;17.920;2023-06-26T08:31:35;100665.99;;;23.03;51.38
79366;BME280;68833;53.160;17.920;2023-06-26T08:34:02;100664.02;;;23.00;51.72
79366;BME280;68833;53.160;17.920;2023-06-26T08:36:29;100665.27;;;22.98;51.76
79366;BME280;68833;53.160;17.920;2023-06-26T08:38:56;100664.91;;;22.95;51.83
79366;BME280;68833;53.160;17.920;2023-06-26T08:41:22;100666.96;;;22.91;51.81
79366;BME280;68833;53.160;17.920;2023-06-26T08:43:49;100664.27;;;22.87;52.44
79366;BME280;68833;53.160;17.920;2023-06-26T08:46:17;100666.25;;;22.85;52.83
79366;BME280;68833;53.160;17.920;2023-06-26T08:48:48;100666.27;;;22.81;52.62
79366;BME280;68833;53.160;17.920;2023-06-26T08:51:17;100666.34;;;22.77;53.11
79366;BME280;68833;53.160;17.920;2023-06-26T08:56:15;100660.62;;;22.71;52.96
79366;BME280;68833;53.160;17.920;2023-06-26T08:58:44;100660.66;;;22.70;53.71
79366;BME280;68833;53.160;17.920;2023-06-26T09:01:12;100658.88;;;22.70;53.93
79366;BME280;68833;53.160;17.920;2023-06-26T09:03:38;100656.15;;;22.71;54.15
79366;BME280;68833;53.160;17.920;2023-06-26T09:06:05;100655.92;;;22.71;53.97
79366;BME280;68833;53.160;17.920;2023-06-26T09:08:31;100658.09;;;22.71;53.75
79366;BME280;68833;53.160;17.920;2023-06-26T09:10:57;100655.23;;;22.71;53.98
79366;BME280;68833;53.160;17.920;2023-06-26T09:13:24;100654.48;;;22.75;54.31
79366;BME280;68833;53.160;17.920;2023-06-26T09:15:53;100649.91;;;22.82;53.71
79366;BME280;68833;53.160;17.920;2023-06-26T09:18:21;100649.09;;;22.90;53.09
79366;BME280;68833;53.160;17.920;2023-06-26T09:20:50;100644.27;;;23.04;52.72
79366;BME280;68833;53.160;17.920;2023-06-26T09:23:17;100644.20;;;23.20;52.15
79366;BME280;68833;53.160;17.920;2023-06-26T09:25:43;100636.42;;;23.35;51.40
79366;BME280;68833;53.160;17.920;2023-06-26T09:28:11;100635.42;;;23.54;50.99
79366;BME280;68833;53.160;17.920;2023-06-26T09:30:37;100633.10;;;23.65;50.26
79366;BME280;68833;53.160;17.920;2023-06-26T09:33:17;100630.58;;;23.77;49.34
79366;BME280;68833;53.160;17.920;2023-06-26T09:35:44;100627.13;;;23.92;48.69
79366;BME280;68833;53.160;17.920;2023-06-26T09:38:12;100626.52;;;23.95;48.69
79366;BME280;68833;53.160;17.920;2023-06-26T09:40:39;100626.34;;;23.98;48.95
79366;BME280;68833;53.160;17.920;2023-06-26T09:43:07;100621.19;;;24.02;48.35
79366;BME280;68833;53.160;17.920;2023-06-26T09:45:34;100619.61;;;24.16;48.50
79366;BME280;68833;53.160;17.920;2023-06-26T09:48:04;100617.73;;;24.27;47.87
79366;BME280;68833;53.160;17.920;2023-06-26T09:50:32;100616.31;;;24.35;47.79
79366;BME280;68833;53.160;17.920;2023-06-26T09:53:08;100617.93;;;24.48;47.00
79366;BME280;68833;53.160;17.920;2023-06-26T09:55:35;100613.66;;;24.58;46.86
79366;BME280;68833;53.160;17.920;2023-06-26T09:58:05;100615.02;;;24.73;46.24
79366;BME280;68833;53.160;17.920;2023-06-26T10:03:57;100607.41;;;24.84;45.12
79366;BME280;68833;53.160;17.920;2023-06-26T10:06:28;100605.09;;;24.81;45.30
79366;BME280;68833;53.160;17.920;2023-06-26T10:09:00;100607.62;;;24.79;45.32
79366;BME280;68833;53.160;17.920;2023-06-26T10:11:34;100607.61;;;24.76;45.71
79366;BME280;68833;53.160;17.920;2023-06-26T10:14:03;100605.63;;;24.73;44.83
79366;BME280;68833;53.160;17.920;2023-06-26T10:16:31;100604.84;;;24.72;44.66
79366;BME280;68833;53.160;17.920;2023-06-26T10:19:01;100598.13;;;24.70;44.37
79366;BME280;68833;53.160;17.920;2023-06-26T10:21:29;100597.56;;;24.81;44.02
79366;BME280;68833;53.160;17.920;2023-06-26T10:23:56;100595.80;;;24.96;44.29
79366;BME280;68833;53.160;17.920;2023-06-26T10:26:24;100593.10;;;25.13;43.08
79366;BME280;68833;53.160;17.920;2023-06-26T10:28:53;100583.55;;;25.29;42.72
79366;BME280;68833;53.160;17.920;2023-06-26T10:31:23;100581.23;;;25.44;42.16
79366;BME280;68833;53.160;17.920;2023-06-26T10:33:52;100580.70;;;25.58;42.05
79366;BME280;68833;53.160;17.920;2023-06-26T10:36:20;100574.83;;;25.72;42.15
79366;BME280;68833;53.160;17.920;2023-06-26T10:38:55;100570.64;;;25.87;41.25
79366;BME280;68833;53.160;17.920;2023-06-26T10:41:22;100570.45;;;26.04;41.38
79366;BME280;68833;53.160;17.920;2023-06-26T10:44:11;100569.42;;;26.21;41.09
79366;BME280;68833;53.160;17.920;2023-06-26T10:46:53;100571.98;;;26.30;41.30
79366;BME280;68833;53.160;17.920;2023-06-26T10:49:20;100570.09;;;26.33;40.57
79366;BME280;68833;53.160;17.920;2023-06-26T10:51:48;100566.52;;;26.30;40.13
79366;BME280;68833;53.160;17.920;2023-06-26T10:54:16;100565.92;;;26.24;39.91
79366;BME280;68833;53.160;17.920;2023-06-26T10:56:54;100560.16;;;26.17;39.72
79366;BME280;68833;53.160;17.920;2023-06-26T10:59:25;100562.02;;;26.23;39.80
79366;BME280;68833;53.160;17.920;2023-06-26T11:02:04;100559.16;;;26.32;39.92
79366;BME280;68833;53.160;17.920;2023-06-26T11:04:44;100555.98;;;26.38;39.11
79366;BME280;68833;53.160;17.920;2023-06-26T11:07:29;100556.13;;;26.48;39.04
79366;BME280;68833;53.160;17.920;2023-06-26T11:10:22;100549.95;;;26.60;38.62
79366;BME280;68833;53.160;17.920;2023-06-26T11:12:48;100554.20;;;26.78;38.59
79366;BME280;68833;53.160;17.920;2023-06-26T11:15:17;100556.48;;;26.92;38.17
79366;BME280;68833;53.160;17.920;2023-06-26T11:17:45;100552.06;;;27.07;37.26
79366;BME280;68833;53.160;17.920;2023-06-26T11:20:12;100544.66;;;27.20;37.10
79366;BME280;68833;53.160;17.920;2023-06-26T11:22:42;100546.98;;;27.32;36.34
79366;BME280;68833;53.160;17.920;2023-06-26T11:25:10;100542.58;;;27.44;36.38
79366;BME280;68833;53.160;17.920;2023-06-26T11:30:04;100539.84;;;27.68;34.43
79366;BME280;68833;53.160;17.920;2023-06-26T11:32:31;100544.09;;;27.78;34.23
79366;BME280;68833;53.160;17.920;2023-06-26T11:34:59;100538.84;;;27.85;34.24
79366;BME280;68833;53.160;17.920;2023-06-26T11:37:26;100540.11;;;27.91;34.34
79366;BME280;68833;53.160;17.920;2023-06-26T11:39:52;100539.82;;;27.97;34.17
79366;BME280;68833;53.160;17.920;2023-06-26T11:42:20;100541.04;;;28.06;33.68
79366;BME280;68833;53.160;17.920;2023-06-26T11:44:46;100538.98;;;28.16;33.32
79366;BME280;68833;53.160;17.920;2023-06-26T11:47:17;100536.73;;;28.24;32.63
79366;BME280;68833;53.160;17.920;2023-06-26T11:49:45;100537.04;;;28.34;32.80
79366;BME280;68833;53.160;17.920;2023-06-26T11:52:14;100531.92;;;28.43;31.99
79366;BME280;68833;53.160;17.920;2023-06-26T11:54:42;100526.39;;;28.48;31.34
79366;BME280;68833;53.160;17.920;2023-06-26T11:57:08;100523.14;;;28.55;31.94
79366;BME280;68833;53.160;17.920;2023-06-26T11:59:40;100520.35;;;28.62;32.66
79366;BME280;68833;53.160;17.920;2023-06-26T12:02:11;100523.84;;;28.69;32.27
79366;BME280;68833;53.160;17.920;2023-06-26T12:04:41;100524.48;;;28.77;31.33
79366;BME280;68833;53.160;17.920;2023-06-26T12:07:09;100519.66;;;28.80;31.18
79366;BME280;68833;53.160;17.920;2023-06-26T12:09:42;100517.17;;;28.84;31.06
79366;BME280;68833;53.160;17.920;2023-06-26T12:12:11;100510.27;;;28.88;30.57
79366;BME280;68833;53.160;17.920;2023-06-26T12:14:39;100507.28;;;28.89;30.69
79366;BME280;68833;53.160;17.920;2023-06-26T12:17:12;100507.20;;;28.88;30.18
79366;BME280;68833;53.160;17.920;2023-06-26T12:19:55;100500.54;;;28.88;30.50
79366;BME280;68833;53.160;17.920;2023-06-26T12:22:21;100501.63;;;28.90;31.39
79366;BME280;68833;53.160;17.920;2023-06-26T12:24:48;100498.88;;;28.92;31.56
79366;BME280;68833;53.160;17.920;2023-06-26T12:27:17;100498.54;;;28.98;31.17
79366;BME280;68833;53.160;17.920;2023-06-26T12:29:52;100498.30;;;28.99;30.55
79366;BME280;68833;53.160;17.920;2023-06-26T12:32:22;100496.69;;;29.01;30.90
79366;BME280;68833;53.160;17.920;2023-06-26T12:34:49;100492.47;;;29.01;31.51
79366;BME280;68833;53.160;17.920;2023-06-26T12:37:16;100493.91;;;28.99;30.78
79366;BME280;68833;53.160;17.920;2023-06-26T12:39:51;100495.88;;;28.95;31.18
79366;BME280;68833;53.160;17.920;2023-06-26T12:42:19;100490.39;;;28.94;31.37
79366;BME280;68833;53.160;17.920;2023-06-26T12:44:46;100484.65;;;28.93;31.63
79366;BME280;68833;53.160;17.920;2023-06-26T12:47:14;100481.60;;;28.95;31.73
79366;BME280;68833;53.160;17.920;2023-06-26T12:49:43;100476.70;;;28.98;31.27
79366;BME280;68833;53.160;17.920;2023-06-26T12:52:14;100472.27;;;28.99;31.60
79366;BME280;68833;53.160;17.920;2023-06-26T12:54:42;100474.05;;;28.99;31.29
79366;BME280;68833;53.160;17.920;2023-06-26T12:57:09;100469.94;;;28.99;31.05